createdAt,value
2018-03-08T00:00:59.569Z,5.40
2018-03-08T00:03:27.824Z,5.40
2018-03-08T00:05:55.339Z,5.40
2018-03-08T00:08:22.829Z,5.40
2018-03-08T00:10:50.354Z,5.40
2018-03-08T00:13:17.982Z,5.40
2018-03-08T00:15:45.489Z,5.50
2018-03-08T00:18:12.981Z,5.40
2018-03-08T00:20:40.501Z,5.40
2018-03-08T00:23:07.989Z,5.40
2018-03-08T00:25:35.517Z,5.40
2018-03-08T00:28:03.026Z,5.40
2018-03-08T00:30:30.560Z,5.40
2018-03-08T00:32:58.056Z,5.40
2018-03-08T00:35:25.601Z,5.40
2018-03-08T00:37:53.088Z,5.30
2018-03-08T00:40:20.609Z,5.10
2018-03-08T00:42:48.098Z,5.00
2018-03-08T00:45:16.377Z,4.90
2018-03-08T00:47:43.874Z,4.90
2018-03-08T00:50:11.396Z,4.90
2018-03-08T00:52:38.880Z,4.90
2018-03-08T00:55:06.406Z,4.90
2018-03-08T00:57:33.889Z,4.90
2018-03-08T01:00:01.415Z,5.00
2018-03-08T01:02:29.665Z,5.00
2018-03-08T01:04:57.193Z,5.00
2018-03-08T01:07:24.686Z,5.00
2018-03-08T01:09:52.204Z,4.90
2018-03-08T01:12:19.689Z,4.70
2018-03-08T01:14:47.974Z,4.40
2018-03-08T01:17:16.236Z,4.20
2018-03-08T01:19:43.757Z,4.10
2018-03-08T01:22:11.912Z,4.00
2018-03-08T01:24:39.464Z,3.90
2018-03-08T01:27:06.948Z,3.80
2018-03-08T01:29:34.473Z,3.70
2018-03-08T01:32:01.961Z,3.70
2018-03-08T01:34:29.502Z,3.60
2018-03-08T01:36:56.996Z,3.50
2018-03-08T01:39:24.509Z,3.40
2018-03-08T01:59:02.796Z,2.90
2018-03-08T02:01:30.308Z,2.90
2018-03-08T02:03:57.808Z,2.90
2018-03-08T02:06:25.324Z,2.80
2018-03-08T02:08:52.808Z,2.70
2018-03-08T02:11:20.336Z,2.60
2018-03-08T02:13:47.820Z,2.60
2018-03-08T02:16:15.348Z,2.60
2018-03-08T02:18:43.596Z,2.40
2018-03-08T02:21:11.117Z,2.40
2018-03-08T02:23:39.373Z,2.40
2018-03-08T02:26:06.887Z,2.30
2018-03-08T02:28:34.367Z,2.30
2018-03-08T02:31:01.881Z,2.30
2018-03-08T02:33:29.393Z,2.30
2018-03-08T02:35:56.913Z,2.30
2018-03-08T02:38:24.416Z,2.20
2018-03-08T02:40:52.697Z,2.20
2018-03-08T02:43:20.220Z,2.20
2018-03-08T02:45:47.772Z,2.10
2018-03-08T02:48:15.269Z,2.00
2018-03-08T02:50:42.797Z,2.00
2018-03-08T02:53:11.055Z,1.80
2018-03-08T02:55:38.580Z,1.80
2018-03-08T03:00:56.771Z,1.80
2018-03-08T03:03:24.292Z,1.80
2018-03-08T03:05:51.783Z,1.80
2018-03-08T03:08:20.072Z,1.80
2018-03-08T03:10:48.328Z,1.80
2018-03-08T03:13:16.552Z,1.80
2018-03-08T03:15:44.807Z,1.80
2018-03-08T03:18:12.328Z,1.80
2018-03-08T03:20:39.810Z,1.80
2018-03-08T03:23:07.333Z,1.80
2018-03-08T03:25:34.824Z,1.70
2018-03-08T03:28:02.340Z,1.60
2018-03-08T03:30:29.869Z,1.50
2018-03-08T03:32:58.120Z,1.40
2018-03-08T03:35:25.625Z,1.40
2018-03-08T03:37:53.106Z,1.40
2018-03-08T03:40:21.384Z,1.30
2018-03-08T03:42:48.872Z,1.30
2018-03-08T03:45:17.148Z,1.50
2018-03-08T03:47:45.409Z,1.50
2018-03-08T03:50:12.920Z,1.50
2018-03-08T03:52:41.168Z,1.40
2018-03-08T03:55:08.684Z,1.40
2018-03-08T03:57:36.166Z,1.40
2018-03-08T04:00:03.692Z,1.40
2018-03-08T04:02:31.184Z,1.50
2018-03-08T04:04:58.708Z,1.60
2018-03-08T04:07:26.192Z,1.50
2018-03-08T04:09:53.712Z,1.60
2018-03-08T04:12:21.195Z,1.70
2018-03-08T04:14:48.713Z,1.60
2018-03-08T04:17:16.205Z,1.60
2018-03-08T04:19:44.489Z,1.50
2018-03-08T04:22:11.973Z,1.50
2018-03-08T04:24:40.252Z,1.30
2018-03-08T04:27:07.745Z,1.30
2018-03-08T04:29:35.260Z,1.30
2018-03-08T04:32:02.748Z,1.20
2018-03-08T04:34:30.268Z,1.20
2018-03-08T04:36:57.747Z,1.20
2018-03-08T04:39:25.275Z,1.20
2018-03-08T04:41:52.768Z,1.40
2018-03-08T04:44:20.284Z,1.40
2018-03-08T04:46:47.765Z,1.50
2018-03-08T04:49:15.289Z,1.50
2018-03-08T04:51:42.777Z,1.50
2018-03-08T04:54:10.308Z,1.50
2018-03-08T04:56:37.797Z,1.40
2018-03-08T04:59:06.107Z,1.20
2018-03-08T05:01:33.602Z,1.20
2018-03-08T05:04:01.128Z,1.20
2018-03-08T05:06:28.616Z,1.20
2018-03-08T05:08:56.136Z,1.20
2018-03-08T05:11:23.625Z,1.20
2018-03-08T05:13:51.916Z,1.40
2018-03-08T05:16:20.168Z,1.40
2018-03-08T05:18:47.761Z,1.40
2018-03-08T05:21:15.253Z,1.50
2018-03-08T05:23:43.525Z,1.40
2018-03-08T05:26:11.040Z,1.40
2018-03-08T05:28:38.536Z,1.40
2018-03-08T05:31:06.056Z,1.40
2018-03-08T05:33:34.312Z,1.50
2018-03-08T05:36:01.842Z,1.50
2018-03-08T05:38:29.384Z,1.50
2018-03-08T05:40:57.644Z,1.30
2018-03-08T05:43:25.132Z,1.20
2018-03-08T05:45:52.644Z,1.30
2018-03-08T05:48:20.152Z,1.30
2018-03-08T05:50:47.672Z,1.30
2018-03-08T05:53:15.212Z,1.40
2018-03-08T05:55:42.748Z,1.40
2018-03-08T05:58:10.237Z,1.50
2018-03-08T06:00:37.770Z,1.50
2018-03-08T06:03:05.297Z,1.50
2018-03-08T06:05:32.784Z,1.50
2018-03-08T06:08:00.313Z,1.60
2018-03-08T06:10:27.811Z,1.60
2018-03-08T06:12:55.341Z,1.60
2018-03-08T06:15:22.832Z,1.60
2018-03-08T06:17:50.469Z,1.60
2018-03-08T06:20:17.952Z,1.70
2018-03-08T06:22:45.444Z,1.70
2018-03-08T06:25:12.968Z,1.70
2018-03-08T06:27:40.463Z,1.80
2018-03-08T06:30:07.988Z,2.00
2018-03-08T06:32:35.528Z,2.00
2018-03-08T06:35:03.017Z,2.10
2018-03-08T06:37:30.548Z,2.10
2018-03-08T06:39:58.069Z,2.30
2018-03-08T06:42:25.630Z,2.40
2018-03-08T06:44:53.157Z,2.60
2018-03-08T06:47:20.664Z,2.70
2018-03-08T06:49:48.176Z,2.80
2018-03-08T06:52:16.428Z,3.00
2018-03-08T06:54:43.944Z,3.00
2018-03-08T06:57:12.205Z,3.20
2018-03-08T06:59:39.726Z,3.10
2018-03-08T07:02:07.217Z,3.30
2018-03-08T07:04:34.762Z,3.40
2018-03-08T07:07:02.265Z,3.60
2018-03-08T07:09:29.780Z,3.80
2018-03-08T07:11:58.028Z,4.30
2018-03-08T07:14:25.550Z,4.30
2018-03-08T07:16:53.809Z,5.00
2018-03-08T07:19:21.329Z,5.00
2018-03-08T07:21:48.807Z,6.40
2018-03-08T07:24:16.324Z,9.20
2018-03-08T07:26:43.823Z,11.90
2018-03-08T07:29:12.108Z,12.70
2018-03-08T07:31:40.373Z,11.90
2018-03-08T07:34:07.896Z,11.90
2018-03-08T07:36:35.384Z,12.60
2018-03-08T07:39:02.911Z,13.90
2018-03-08T07:41:31.176Z,13.60
2018-03-08T07:43:58.708Z,13.60
2018-03-08T07:46:26.203Z,14.00
2018-03-08T07:48:53.743Z,12.50
2018-03-08T07:51:21.237Z,11.50
2018-03-08T07:53:48.759Z,11.00
2018-03-08T07:56:17.013Z,12.50
2018-03-08T07:58:44.537Z,12.50
2018-03-08T08:01:12.028Z,13.00
2018-03-08T08:03:39.550Z,13.00
2018-03-08T08:06:19.737Z,12.00
2018-03-08T08:08:59.063Z,12.00
2018-03-08T08:11:26.550Z,12.90
2018-03-08T08:13:54.838Z,14.30
2018-03-08T08:16:23.089Z,14.40
2018-03-08T08:18:50.629Z,14.40
2018-03-08T08:21:18.120Z,15.90
2018-03-08T08:23:46.755Z,16.90
2018-03-08T08:26:14.277Z,16.30
2018-03-08T08:28:41.851Z,14.80
2018-03-08T08:31:09.426Z,13.40
2018-03-08T08:33:36.917Z,12.00
2018-03-08T08:36:04.441Z,10.90
2018-03-08T08:38:32.684Z,9.60
2018-03-08T08:41:00.221Z,9.60
2018-03-08T08:43:27.755Z,9.60
2018-03-08T08:45:55.271Z,9.40
2018-03-08T08:48:22.795Z,9.00
2018-03-08T08:50:50.343Z,9.00
2018-03-08T08:53:17.830Z,8.60
2018-03-08T09:15:41.373Z,8.30
2018-03-08T09:18:08.864Z,8.50
2018-03-08T09:20:37.255Z,8.70
2018-03-08T09:23:04.735Z,8.80
2018-03-08T09:25:32.258Z,9.10
2018-03-08T09:27:59.748Z,9.10
2018-03-08T09:30:28.024Z,9.10
2018-03-08T09:32:56.339Z,9.10
2018-03-08T09:35:23.844Z,9.00
2018-03-08T09:37:51.331Z,9.20
2018-03-08T09:40:18.847Z,9.40
2018-03-08T09:42:46.327Z,9.90
2018-03-08T09:45:13.849Z,10.10
2018-03-08T09:47:41.333Z,10.40
2018-03-08T09:50:08.840Z,10.40
2018-03-08T09:52:36.319Z,10.70
2018-03-08T09:55:03.863Z,10.90
2018-03-08T09:57:32.107Z,11.60
2018-03-08T09:59:59.625Z,11.50
2018-03-08T10:02:27.884Z,11.80
2018-03-08T10:04:55.396Z,11.70
2018-03-08T10:07:22.875Z,11.70
2018-03-08T10:09:50.383Z,12.00
2018-03-08T10:12:20.092Z,12.20
2018-03-08T10:14:47.599Z,12.00
2018-03-08T10:17:15.085Z,11.60
2018-03-08T10:19:43.356Z,10.90
2018-03-08T10:22:10.834Z,10.90
2018-03-08T10:24:38.343Z,10.50
2018-03-08T10:27:05.823Z,10.30
2018-03-08T10:29:33.331Z,10.00
2018-03-08T10:32:00.804Z,9.90
2018-03-08T10:34:28.322Z,10.00
2018-03-08T10:36:55.832Z,9.80
2018-03-08T10:41:51.587Z,10.20
2018-03-08T10:44:19.095Z,10.20
2018-03-08T10:46:47.371Z,10.80
2018-03-08T10:49:15.771Z,10.80
2018-03-08T10:51:43.323Z,11.20
2018-03-08T10:54:10.781Z,11.80
2018-03-08T10:56:39.051Z,12.00
2018-03-08T10:59:06.528Z,11.90
2018-03-08T11:01:34.043Z,11.90
2018-03-08T11:04:07.201Z,11.70
2018-03-08T11:06:36.660Z,11.60
2018-03-08T11:09:05.022Z,11.60
2018-03-08T11:11:32.556Z,11.90
2018-03-08T11:14:00.486Z,12.60
2018-03-08T11:16:28.071Z,13.20
2018-03-08T11:18:55.583Z,13.70
2018-03-08T11:21:23.176Z,13.70
2018-03-08T11:23:50.671Z,13.80
2018-03-08T11:26:18.204Z,13.40
2018-03-08T11:28:45.867Z,13.30
2018-03-08T11:31:13.442Z,13.40
2018-03-08T11:33:40.915Z,13.00
2018-03-08T11:36:08.439Z,12.90
2018-03-08T11:38:35.924Z,12.50
2018-03-08T11:41:04.400Z,12.20
2018-03-08T11:43:33.045Z,12.10
2018-03-08T11:46:00.577Z,12.20
2018-03-08T11:48:28.074Z,12.30
2018-03-08T11:50:57.762Z,12.10
2018-03-08T11:53:23.855Z,12.10
2018-03-08T11:55:51.793Z,12.10
2018-03-08T11:58:19.323Z,11.90
2018-03-08T12:00:47.507Z,11.50
2018-03-08T12:03:14.996Z,11.30
2018-03-08T12:05:42.571Z,11.40
2018-03-08T12:08:11.050Z,11.30
2018-03-08T12:10:38.619Z,11.10
2018-03-08T12:13:06.108Z,10.90
2018-03-08T12:15:33.637Z,10.70
2018-03-08T12:18:01.242Z,10.60
2018-03-08T12:20:28.709Z,10.60
2018-03-08T12:22:56.223Z,10.50
2018-03-08T12:25:23.708Z,10.40
2018-03-08T12:27:52.113Z,10.20
2018-03-08T12:30:19.612Z,10.20
2018-03-08T12:32:47.972Z,10.10
2018-03-08T12:35:16.227Z,9.90
2018-03-08T12:37:44.122Z,9.90
2018-03-08T12:40:12.103Z,9.90
2018-03-08T12:42:39.615Z,9.90
2018-03-08T12:45:07.140Z,9.90
2018-03-08T12:47:34.655Z,10.00
2018-03-08T12:50:02.174Z,10.10
2018-03-08T12:52:29.651Z,10.20
2018-03-08T12:54:57.189Z,10.30
2018-03-08T12:57:24.686Z,10.50
2018-03-08T12:59:52.223Z,10.70
2018-03-08T13:02:19.701Z,10.70
2018-03-08T13:04:47.186Z,10.70
2018-03-08T13:07:14.704Z,10.70
2018-03-08T13:09:42.966Z,10.40
2018-03-08T13:12:11.252Z,10.40
2018-03-08T13:14:39.842Z,10.10
2018-03-08T13:17:07.367Z,10.10
2018-03-08T13:19:34.881Z,10.00
2018-03-08T13:22:03.368Z,9.90
2018-03-08T13:24:30.863Z,9.80
2018-03-08T13:26:58.412Z,9.70
2018-03-08T13:29:25.908Z,9.70
2018-03-08T13:31:53.733Z,9.70
2018-03-08T13:34:22.084Z,9.90
2018-03-08T13:36:50.292Z,9.80
2018-03-08T13:39:17.773Z,10.00
2018-03-08T13:41:45.464Z,10.20
2018-03-08T13:44:12.951Z,10.30
2018-03-08T13:46:40.464Z,10.20
2018-03-08T13:54:50.660Z,10.20
2018-03-08T13:57:19.000Z,10.20
2018-03-08T13:59:47.248Z,10.20
2018-03-08T14:02:14.785Z,10.10
2018-03-08T14:04:42.343Z,10.00
2018-03-08T14:07:10.405Z,10.00
2018-03-08T14:09:37.956Z,10.10
2018-03-08T14:12:05.501Z,10.10
2018-03-08T14:14:33.084Z,10.10
2018-03-08T14:17:00.604Z,10.00
2018-03-08T14:19:28.920Z,9.80
2018-03-08T14:21:56.424Z,9.70
2018-03-08T14:24:23.993Z,9.70
2018-03-08T14:26:51.577Z,9.60
2018-03-08T14:29:21.012Z,9.50
2018-03-08T14:31:48.575Z,9.40
2018-03-08T14:34:16.161Z,9.40
2018-03-08T14:36:43.702Z,9.30
2018-03-08T14:39:11.207Z,9.10
2018-03-08T14:41:38.743Z,9.00
2018-03-08T14:44:07.150Z,8.90
2018-03-08T14:46:34.698Z,8.80
2018-03-08T14:49:02.212Z,8.70
2018-03-08T14:51:29.764Z,8.70
2018-03-08T14:53:57.264Z,8.60
2018-03-08T14:56:24.829Z,8.60
2018-03-08T14:58:52.341Z,8.50
2018-03-08T15:01:20.301Z,8.50
2018-03-08T15:03:47.758Z,8.40
2018-03-08T15:06:15.313Z,8.30
2018-03-08T15:08:42.815Z,8.20
2018-03-08T15:11:11.140Z,8.10
2018-03-08T15:13:38.639Z,8.10
2018-03-08T15:16:06.213Z,8.10
2018-03-08T15:18:33.716Z,8.10
2018-03-08T15:21:01.997Z,8.10
2018-03-08T15:23:29.547Z,8.10
2018-03-08T15:25:57.079Z,8.10
2018-03-08T15:28:25.411Z,8.10
2018-03-08T15:30:52.955Z,8.00
2018-03-08T15:33:20.544Z,8.00
2018-03-08T15:35:48.064Z,8.00
2018-03-08T15:38:15.682Z,7.90
2018-03-08T15:40:43.227Z,7.90
2018-03-08T15:43:10.796Z,7.90
2018-03-08T15:45:38.420Z,7.90
2018-03-08T15:48:05.959Z,7.90
2018-03-08T15:50:33.485Z,7.90
2018-03-08T15:53:01.792Z,7.70
2018-03-08T15:55:30.693Z,7.60
2018-03-08T15:57:59.023Z,7.50
2018-03-08T16:00:27.435Z,7.50
2018-03-08T16:02:54.988Z,7.40
2018-03-08T16:05:23.140Z,7.40
2018-03-08T16:11:09.198Z,7.20
2018-03-08T16:13:36.760Z,7.20
2018-03-08T16:16:04.516Z,7.20
2018-03-08T16:18:32.131Z,7.10
2018-03-08T16:21:00.139Z,7.10
2018-03-08T16:23:27.706Z,7.00
2018-03-08T16:25:56.014Z,6.70
2018-03-08T16:28:23.608Z,6.70
2018-03-08T16:30:51.489Z,6.60
2018-03-08T16:33:19.012Z,6.50
2018-03-08T16:35:47.340Z,6.40
2018-03-08T16:38:15.646Z,6.20
2018-03-08T16:40:43.248Z,6.20
2018-03-08T16:43:10.768Z,6.10
2018-03-08T16:45:38.308Z,6.00
2018-03-08T16:48:05.850Z,5.90
2018-03-08T16:50:33.372Z,5.80
2018-03-08T16:53:01.676Z,5.80
2018-03-08T16:55:29.277Z,5.70
2018-03-08T16:57:57.555Z,5.60
2018-03-08T17:00:25.104Z,5.50
2018-03-08T17:02:52.625Z,5.50
2018-03-08T17:05:21.990Z,5.40
2018-03-08T17:07:49.725Z,5.40
2018-03-08T17:10:17.268Z,5.30
2018-03-08T17:12:45.524Z,5.40
2018-03-08T17:15:13.080Z,5.30
2018-03-08T17:17:40.623Z,5.30
2018-03-08T17:20:09.166Z,5.20
2018-03-08T17:22:36.807Z,5.20
2018-03-08T17:25:05.195Z,5.20
2018-03-08T17:27:32.718Z,5.20
2018-03-08T17:30:00.722Z,5.10
2018-03-08T17:32:28.284Z,5.10
2018-03-08T17:34:55.995Z,5.00
2018-03-08T17:37:24.792Z,4.90
2018-03-08T17:39:52.583Z,4.90
2018-03-08T17:42:21.623Z,4.80
2018-03-08T17:44:49.229Z,4.70
2018-03-08T17:47:16.747Z,4.60
2018-03-08T17:49:44.299Z,4.40
2018-03-08T17:52:11.815Z,4.40
2018-03-08T17:54:39.371Z,4.30
2018-03-08T17:57:06.900Z,4.20
2018-03-08T17:59:34.439Z,4.10
2018-03-08T18:02:01.952Z,4.00
2018-03-08T18:04:29.545Z,3.90
2018-03-08T18:06:57.413Z,3.70
2018-03-08T18:09:24.973Z,3.70
2018-03-08T18:11:52.542Z,3.60
2018-03-08T18:14:20.197Z,3.60
2018-03-08T18:16:47.871Z,3.50
2018-03-08T18:19:16.215Z,3.60
2018-03-08T18:21:43.802Z,3.50
2018-03-08T18:24:12.390Z,3.50
2018-03-08T18:26:51.368Z,3.50
2018-03-08T18:29:18.935Z,3.40
2018-03-08T18:31:46.472Z,3.40
2018-03-08T18:34:14.081Z,3.30
2018-03-08T18:36:42.194Z,3.30
2018-03-08T18:39:11.008Z,3.20
2018-03-08T18:41:38.573Z,3.20
2018-03-08T18:44:06.179Z,3.20
2018-03-08T18:46:33.745Z,3.30
2018-03-08T18:49:01.311Z,3.40
2018-03-08T18:51:29.928Z,3.40
2018-03-08T18:53:57.471Z,3.50
2018-03-08T18:56:25.547Z,3.50
2018-03-08T18:58:53.497Z,3.50
2018-03-08T19:01:21.934Z,3.40
2018-03-08T19:03:49.500Z,3.40
2018-03-08T19:06:17.865Z,3.40
2018-03-08T19:08:45.420Z,3.40
2018-03-08T19:11:13.007Z,3.40
2018-03-08T19:13:40.556Z,3.40
2018-03-08T19:16:09.029Z,3.40
2018-03-08T19:18:38.638Z,3.40
2018-03-08T19:21:06.331Z,3.30
2018-03-08T19:23:36.680Z,3.30
2018-03-08T19:26:06.599Z,3.20
2018-03-08T19:28:34.224Z,3.30
2018-03-08T19:31:03.060Z,3.30
2018-03-08T19:33:30.880Z,3.20
2018-03-08T19:35:58.666Z,3.10
2018-03-08T19:38:26.555Z,3.10
2018-03-08T19:40:54.126Z,3.00
2018-03-08T19:43:29.292Z,3.30
2018-03-08T19:45:56.829Z,3.30
2018-03-08T19:48:24.389Z,3.20
2018-03-08T19:50:51.972Z,3.20
2018-03-08T19:53:20.293Z,3.20
2018-03-08T19:55:48.738Z,3.20
2018-03-08T19:58:16.344Z,3.20
2018-03-08T20:00:43.976Z,3.20
2018-03-08T20:05:50.919Z,3.20
2018-03-08T20:08:18.653Z,3.20
2018-03-08T20:10:46.270Z,3.10
2018-03-08T20:13:13.845Z,3.10
2018-03-08T20:15:41.430Z,3.00
2018-03-08T20:18:08.990Z,3.00
2018-03-08T20:20:37.264Z,3.00
2018-03-08T20:23:05.435Z,2.90
2018-03-08T20:25:33.077Z,2.90
2018-03-08T20:28:00.627Z,2.80
2018-03-08T20:30:28.196Z,2.70
2018-03-08T20:32:55.712Z,2.70
2018-03-08T20:35:23.971Z,2.80
2018-03-08T20:37:52.316Z,2.80
2018-03-08T20:40:19.881Z,2.80
2018-03-08T20:42:47.462Z,2.80
2018-03-08T20:45:15.026Z,2.70
2018-03-08T20:47:42.563Z,2.70
2018-03-08T20:50:10.131Z,2.70
2018-03-08T20:52:37.888Z,2.60
2018-03-08T20:55:05.451Z,2.70
2018-03-08T20:57:32.961Z,2.70
2018-03-08T21:00:00.508Z,2.70
2018-03-08T21:02:28.078Z,2.70
2018-03-08T21:04:55.632Z,2.60
2018-03-08T21:07:23.180Z,2.60
2018-03-08T21:09:50.724Z,2.50
2018-03-08T21:12:18.303Z,2.30
2018-03-08T21:14:45.957Z,2.30
2018-03-08T21:17:14.273Z,2.20
2018-03-08T21:19:42.388Z,2.10
2018-03-08T21:22:09.897Z,2.20
2018-03-08T21:24:37.612Z,2.30
2018-03-08T21:27:05.143Z,2.30
2018-03-08T21:29:32.695Z,2.30
2018-03-08T21:32:00.213Z,2.30
2018-03-08T21:34:28.546Z,2.30
2018-03-08T21:36:56.060Z,2.30
2018-03-08T21:39:24.366Z,2.30
2018-03-08T21:41:51.871Z,2.30
2018-03-08T21:44:19.432Z,2.30
2018-03-08T21:46:46.948Z,2.20
2018-03-08T21:49:14.503Z,2.30
2018-03-08T21:51:42.046Z,2.40
2018-03-08T21:54:09.607Z,2.40
2018-03-08T21:56:37.155Z,2.60
2018-03-08T21:59:05.455Z,2.70
2018-03-08T22:01:33.008Z,2.70
2018-03-08T22:04:00.624Z,2.70
2018-03-08T22:06:28.175Z,2.60
2018-03-08T22:08:56.455Z,2.50
2018-03-08T22:11:23.994Z,2.40
2018-03-08T22:13:51.497Z,2.40
2018-03-08T22:16:19.818Z,2.40
2018-03-08T22:18:47.337Z,2.40
2018-03-08T22:21:14.932Z,2.50
2018-03-08T22:23:43.196Z,2.50
2018-03-08T22:26:10.746Z,2.60
2018-03-08T22:28:38.260Z,2.50
2018-03-08T22:31:06.584Z,2.40
2018-03-08T22:33:34.164Z,2.40
2018-03-08T22:36:01.894Z,2.40
2018-03-08T22:38:29.592Z,2.30
2018-03-08T22:40:58.227Z,2.40
2018-03-08T22:43:25.883Z,2.40
2018-03-08T22:45:53.471Z,2.40
2018-03-08T22:48:20.966Z,2.40
2018-03-08T22:50:48.506Z,2.40
2018-03-08T22:53:16.027Z,2.30
2018-03-08T22:55:44.344Z,2.20
2018-03-08T22:58:11.863Z,2.20
2018-03-08T23:00:39.415Z,2.10
2018-03-08T23:03:12.536Z,1.90
2018-03-08T23:05:40.080Z,1.80
2018-03-08T23:08:07.596Z,1.60
2018-03-08T23:10:35.135Z,1.60
2018-03-08T23:13:02.657Z,1.40
2018-03-08T23:15:30.208Z,1.30
2018-03-08T23:17:57.919Z,1.30
2018-03-08T23:20:26.228Z,1.10
2018-03-08T23:22:53.748Z,1.10
2018-03-08T23:25:21.303Z,1.10
2018-03-08T23:27:48.824Z,1.00
2018-03-08T23:30:17.132Z,0.90
2018-03-08T23:32:44.652Z,0.90
2018-03-08T23:35:12.212Z,0.90
2018-03-08T23:37:39.737Z,0.80
2018-03-08T23:40:08.044Z,0.70
2018-03-08T23:42:35.576Z,0.70
2018-03-08T23:45:03.136Z,0.60
2018-03-08T23:47:30.648Z,0.60
2018-03-08T23:49:58.199Z,0.50
2018-03-08T23:52:26.495Z,0.50
2018-03-08T23:54:54.800Z,0.60
2018-03-08T23:57:22.309Z,0.50
2018-03-08T23:59:49.856Z,0.50
